createdAt,value
2019-04-23T00:04:45.579Z,15.24
2019-04-23T00:10:26.271Z,15.11
2019-04-23T00:15:55.302Z,15.13
2019-04-23T00:21:15.533Z,15.17
2019-04-23T00:26:51.583Z,14.96
2019-04-23T00:32:15.094Z,14.95
2019-04-23T00:42:51.222Z,14.75
2019-04-23T00:48:09.299Z,14.88
2019-04-23T00:53:36.962Z,14.66
2019-04-23T00:58:54.968Z,14.52
2019-04-23T01:03:58.115Z,14.74
2019-04-23T01:09:30.908Z,14.61
2019-04-23T01:15:06.912Z,14.47
2019-04-23T01:20:36.819Z,14.52
2019-04-23T01:25:51.696Z,14.36
2019-04-23T01:31:14.721Z,14.44
2019-04-23T01:36:36.045Z,14.51
2019-04-23T01:47:38.380Z,14.46
2019-04-23T01:53:14.335Z,14.33
2019-04-23T02:04:09.662Z,14.07
2019-04-23T02:09:42.292Z,13.88
2019-04-23T02:15:03.631Z,13.67
2019-04-23T02:20:23.652Z,13.59
2019-04-23T02:25:54.071Z,13.86
2019-04-23T02:37:40.887Z,13.97
2019-04-23T02:43:01.708Z,13.78
2019-04-23T03:22:58.998Z,12.83
2019-04-23T03:39:40.296Z,12.19
2019-04-23T03:45:16.625Z,12.16
2019-04-23T04:02:04.377Z,12.19
2019-04-23T04:23:49.309Z,12.22
2019-04-23T04:50:55.532Z,12.22
2019-04-23T05:02:43.570Z,12.47
2019-04-23T05:07:47.425Z,12.02
2019-04-23T05:12:45.222Z,12.16
2019-04-23T05:18:17.407Z,12.15
2019-04-23T05:28:28.447Z,12.12
2019-04-23T05:33:22.423Z,12.21
2019-04-23T05:38:43.786Z,12.18
2019-04-23T05:43:38.444Z,12.38
2019-04-23T05:48:33.366Z,12.46
2019-04-23T05:53:42.454Z,12.57
2019-04-23T05:58:48.950Z,12.56
2019-04-23T06:03:56.973Z,12.32
2019-04-23T06:08:53.568Z,12.48
2019-04-23T06:24:16.346Z,12.77
2019-04-23T06:39:23.391Z,13.19
2019-04-23T06:44:32.377Z,12.94
2019-04-23T06:54:49.347Z,13.19
2019-04-23T06:59:51.604Z,13.43
2019-04-23T07:04:57.162Z,13.65
2019-04-23T07:09:56.219Z,13.77
2019-04-23T07:15:14.610Z,13.85
2019-04-23T07:20:02.709Z,14.09
2019-04-23T07:25:14.918Z,13.97
2019-04-23T07:35:15.941Z,14.29
2019-04-23T07:40:31.301Z,14.56
2019-04-23T07:45:54.745Z,14.81
2019-04-23T07:50:55.078Z,14.67
2019-04-23T07:56:02.114Z,14.83
2019-04-23T08:01:06.915Z,15.17
2019-04-23T08:16:27.776Z,15.62
2019-04-23T08:21:25.824Z,15.62
2019-04-23T08:32:02.507Z,16.09
2019-04-23T08:37:04.624Z,16.25
2019-04-23T08:42:28.808Z,16.73
2019-04-23T08:47:17.149Z,17.11
2019-04-23T08:52:18.262Z,17.16
2019-04-23T08:57:22.711Z,17.49
2019-04-23T09:02:31.240Z,17.42
2019-04-23T09:12:35.092Z,17.76
2019-04-23T09:17:44.393Z,18.02
2019-04-23T09:22:38.830Z,18.07
2019-04-23T09:27:45.465Z,18.07
2019-04-23T09:33:00.843Z,18.45
2019-04-23T09:38:31.548Z,18.40
2019-04-23T09:44:27.591Z,18.41
2019-04-23T09:49:14.985Z,18.31
2019-04-23T09:54:21.897Z,18.60
2019-04-23T09:59:25.607Z,18.51
2019-04-23T10:04:18.614Z,18.81
2019-04-23T10:09:10.573Z,18.84
2019-04-23T10:14:14.475Z,18.87
2019-04-23T10:19:19.011Z,19.15
2019-04-23T10:24:23.191Z,19.11
2019-04-23T10:29:31.988Z,18.81
2019-04-23T10:34:46.094Z,19.13
2019-04-23T10:39:42.695Z,19.32
2019-04-23T10:44:52.154Z,19.14
2019-04-23T10:50:49.578Z,19.63
2019-04-23T11:01:07.922Z,19.60
2019-04-23T11:06:06.763Z,20.05
2019-04-23T11:11:07.851Z,19.74
2019-04-23T11:21:23.604Z,20.24
2019-04-23T11:26:22.949Z,20.15
2019-04-23T11:31:31.029Z,20.63
2019-04-23T11:36:47.909Z,20.69
2019-04-23T11:46:57.230Z,20.72
2019-04-23T11:51:54.730Z,21.02
2019-04-23T11:57:27.150Z,21.07
2019-04-23T12:02:05.312Z,21.16
2019-04-23T12:07:22.680Z,21.56
2019-04-23T12:12:31.171Z,21.08
2019-04-23T12:17:47.085Z,21.44
2019-04-23T12:22:45.617Z,21.83
2019-04-23T12:27:33.407Z,22.00
2019-04-23T12:38:00.986Z,22.07
2019-04-23T12:43:25.742Z,22.35
2019-04-23T12:53:25.848Z,22.65
2019-04-23T13:13:44.396Z,22.88
2019-04-23T13:18:41.554Z,23.02
2019-04-23T13:23:49.445Z,22.92
2019-04-23T13:28:50.960Z,23.15
2019-04-23T13:34:19.542Z,23.45
2019-04-23T13:38:54.762Z,23.67
2019-04-23T13:44:00.251Z,23.73
2019-04-23T13:49:07.411Z,23.95
2019-04-23T13:54:17.257Z,24.28
2019-04-23T13:59:31.448Z,24.32
2019-04-23T14:04:48.401Z,24.28
2019-04-23T14:20:04.526Z,24.56
2019-04-23T14:31:01.147Z,23.92
2019-04-23T14:36:00.520Z,24.57
2019-04-23T14:41:12.890Z,24.91
2019-04-23T14:51:39.618Z,25.03
2019-04-23T14:56:22.258Z,25.20
2019-04-23T15:01:47.560Z,25.40
2019-04-23T15:11:52.730Z,26.51
2019-04-23T15:16:46.634Z,27.55
2019-04-23T15:22:05.163Z,25.04
2019-04-23T15:32:00.770Z,24.34
2019-04-23T15:37:19.216Z,23.78
2019-04-23T15:42:14.463Z,23.32
2019-04-23T15:52:40.138Z,22.97
2019-04-23T15:57:18.123Z,23.06
2019-04-23T16:01:55.373Z,23.11
2019-04-23T16:06:59.434Z,22.96
2019-04-23T16:12:25.343Z,22.91
2019-04-23T16:17:37.121Z,22.70
2019-04-23T16:22:36.739Z,22.51
2019-04-23T16:27:45.187Z,22.42
2019-04-23T16:38:23.254Z,22.15
2019-04-23T16:58:36.557Z,21.70
2019-04-23T17:03:31.865Z,21.67
2019-04-23T17:13:44.697Z,21.52
2019-04-23T17:18:48.703Z,21.43
2019-04-23T17:29:02.942Z,21.38
2019-04-23T17:34:12.141Z,21.35
2019-04-23T17:39:11.969Z,21.38
2019-04-23T17:44:23.516Z,21.34
2019-04-23T17:49:26.410Z,21.27
2019-04-23T18:00:05.452Z,21.13
2019-04-23T18:10:13.296Z,20.98
2019-04-23T18:15:00.403Z,20.89
2019-04-23T18:50:32.795Z,19.88
2019-04-23T18:56:03.896Z,20.30
2019-04-23T19:01:19.841Z,20.31
2019-04-23T19:06:45.679Z,20.23
2019-04-23T19:13:24.950Z,20.17
2019-04-23T19:19:40.616Z,20.20
2019-04-23T19:24:38.522Z,20.16
2019-04-23T19:29:46.235Z,20.11
2019-04-23T19:34:42.661Z,20.04
2019-04-23T19:40:03.952Z,20.00
2019-04-23T19:56:36.544Z,19.81
2019-04-23T20:02:00.235Z,19.77
2019-04-23T20:12:26.895Z,19.63
2019-04-23T20:23:52.579Z,19.44
